Briefing drone pour Beaurieux

Rechercher une autre localisation

Conditions de vol :


Nous sommes le : Mardi 31 mars 2020
Il est 12:40 UTC (14:40 LT)

Lever de soleil : 04:56 UTC (06:56 LT)
Coucher de soleil : 18:41 UTC (20:41 LT)

Météo

L'essentiel des conditions de vol

VIGILANCE MÉTÉO FRANCE - Aisne (02)
Vigilance Jaune : Inondation
CARTES DES FRONTS
METAR de LFQA
LFQA 311230Z AUTO 08011KT CAVOK 11/M00 Q1026

Date d'émission: 31/03/2020
Heure d'émission: 12:30 UTC
Vent: 080° pour 11 KT (20 km/h)
Visibilité horizontale: > 10 km
Plafond : Plafond et visibilité OK (CAVOK)
Température: 11 °C
Point de rosée: 0 °C
Humidité: 47%
Pression (QNH): 1026 hPa
Prévision 24h pour Reims (17 km)
Vent : 50° pour 3 KT (11 km/h)
Temperature Maxi: 6 °C
Temperature Min: 6 °C
Humidité : 59%
Condition : Ciel dégagé



Warning: count(): Parameter must be an array or an object that implements Countable in /homepages/6/d509196549/htdocs/droneoxygene/briefing.php on line 743
WEBCAM POUR BEAURIEUX

Réglementation

Voler en sécurité

CARTES AERONAUTIQUE 1/500.000
CARTES VAC (LFQA)
SUP AIP




Chargement des AIP...
NOTAM (BEAURIEUX + Terrain à proximité / FIR )




Chargement des NOTAMS...
CONTACT PREFECTURE 02


Avertissement : Les données mises à disposition sont indicatives. Oxygène Drone ne pourra être tenu responsable de dégâts causés aux biens et aux personnes.